Time;durP1;ratioP1;P1;durP2;ratioP2;P2;SDS_P1;SDS_P2;PMS_P1;PMS_P2;Temp;Humidity;BMP_temperature;BMP_pressure;BME280_temperature;BME280_humidity;BME280_pressure;Samples;Min_cycle;Max_cycle;Signal;HPM_P1;HPM_P2
2023/08/29 00:00:27;;;;;;;18.80;7.50;;;;;;;12.09;100.00;101130.25;5075121;28;20470;-66
2023/08/29 00:02:53;;;;;;;18.33;7.45;;;;;;;12.09;100.00;101122.28;5076404;28;20032;-67
2023/08/29 00:05:19;;;;;;;18.05;7.25;;;;;;;12.02;100.00;101126.69;5076534;28;20463;-69
2023/08/29 00:07:45;;;;;;;18.33;7.47;;;;;;;12.00;100.00;101128.44;5072224;28;20060;-67
2023/08/29 00:10:10;;;;;;;17.92;7.10;;;;;;;11.98;100.00;101127.53;5075018;28;20471;-69
2023/08/29 00:12:36;;;;;;;17.55;7.05;;;;;;;11.99;100.00;101120.50;5076063;28;20036;-69
2023/08/29 00:15:04;;;;;;;16.70;6.80;;;;;;;11.95;100.00;101122.25;5075942;28;20107;-69
2023/08/29 00:17:29;;;;;;;16.92;6.05;;;;;;;11.89;100.00;101121.31;5076340;28;20029;-68
2023/08/29 00:19:54;;;;;;;17.42;6.55;;;;;;;11.90;100.00;101117.75;5075884;28;20035;-69
2023/08/29 00:22:20;;;;;;;17.85;6.93;;;;;;;11.84;100.00;101119.53;5075484;28;20080;-69
2023/08/29 00:24:46;;;;;;;18.25;7.18;;;;;;;11.80;100.00;101114.22;5076052;28;20033;-68
2023/08/29 00:27:12;;;;;;;17.20;7.10;;;;;;;11.75;100.00;101102.72;5075758;28;20036;-69
2023/08/29 00:29:37;;;;;;;18.23;7.15;;;;;;;11.69;100.00;101104.47;5075882;28;20383;-70
2023/08/29 00:32:03;;;;;;;19.48;7.95;;;;;;;11.70;100.00;101102.69;5074681;28;20081;-68
2023/08/29 00:34:28;;;;;;;18.85;7.50;;;;;;;11.64;100.00;101105.34;5075830;28;20106;-69
2023/08/29 00:36:54;;;;;;;19.58;7.70;;;;;;;11.68;100.00;101101.81;5076020;28;20161;-70
2023/08/29 00:39:19;;;;;;;18.00;8.00;;;;;;;11.69;100.00;101103.56;5075599;28;20071;-69
2023/08/29 00:41:49;;;;;;;19.88;8.35;;;;;;;11.71;100.00;101104.47;5075487;28;20391;-69
2023/08/29 00:44:17;;;;;;;20.15;7.55;;;;;;;11.72;100.00;101098.28;5075655;28;20036;-70
2023/08/29 00:46:45;;;;;;;19.50;7.60;;;;;;;11.75;100.00;101100.06;5075342;28;20025;-69
2023/08/29 00:49:13;;;;;;;21.17;8.70;;;;;;;11.68;100.00;101100.06;5075758;28;20119;-67
2023/08/29 00:51:39;;;;;;;20.65;8.82;;;;;;;11.71;100.00;101104.47;5075348;28;20028;-66
2023/08/29 00:54:06;;;;;;;19.45;8.30;;;;;;;11.61;100.00;101106.19;5075432;28;20032;-69
2023/08/29 00:56:31;;;;;;;18.70;8.13;;;;;;;11.66;100.00;101106.22;5075225;28;20060;-67
2023/08/29 00:58:58;;;;;;;20.38;7.93;;;;;;;11.62;100.00;101104.44;5075326;28;20052;-70
2023/08/29 01:01:23;;;;;;;19.27;8.43;;;;;;;11.58;100.00;101102.66;5075063;28;20472;-69
2023/08/29 01:03:48;;;;;;;19.30;8.30;;;;;;;11.58;100.00;101103.53;5075133;28;20036;-71
2023/08/29 01:06:14;;;;;;;20.85;8.10;;;;;;;11.56;100.00;101096.47;5073999;28;20078;-71
2023/08/29 01:08:43;;;;;;;20.65;8.55;;;;;;;11.52;100.00;101092.94;5075049;28;20032;-71
2023/08/29 01:11:20;;;;;;;20.15;7.82;;;;;;;11.49;100.00;101098.22;5074865;28;20490;-71
2023/08/29 01:13:49;;;;;;;19.75;7.68;;;;;;;11.42;100.00;101092.00;5070978;28;20035;-71
2023/08/29 01:16:19;;;;;;;20.25;7.03;;;;;;;11.38;100.00;101097.28;5075007;28;20025;-71
2023/08/29 01:18:46;;;;;;;19.05;7.50;;;;;;;11.32;100.00;101101.66;5070805;28;20021;-72
2023/08/29 01:21:33;;;;;;;19.25;7.50;;;;;;;11.28;100.00;101101.63;5073491;28;20036;-70
2023/08/29 01:24:10;;;;;;;19.08;7.97;;;;;;;11.23;100.00;101106.03;5072373;28;20049;-71
2023/08/29 01:26:36;;;;;;;19.90;8.10;;;;;;;11.21;100.00;101100.69;5074601;28;20040;-71
2023/08/29 01:29:02;;;;;;;19.17;7.25;;;;;;;11.14;100.00;101101.56;5074953;28;20399;-71
2023/08/29 01:31:29;;;;;;;19.45;7.50;;;;;;;11.15;100.00;101104.22;5074572;28;20031;-71
2023/08/29 01:33:58;;;;;;;19.05;7.85;;;;;;;11.12;100.00;101104.16;5074569;28;20039;-71
2023/08/29 01:36:50;;;;;;;18.73;7.57;;;;;;;11.14;100.00;101105.09;5075000;28;20418;-71
2023/08/29 01:39:16;;;;;;;19.17;8.23;;;;;;;11.05;100.00;101099.72;5070515;28;20090;-71
2023/08/29 01:41:41;;;;;;;19.05;8.00;;;;;;;10.99;100.00;101104.97;5074355;28;20036;-71
2023/08/29 01:44:06;;;;;;;19.27;8.10;;;;;;;10.93;100.00;101099.66;5074297;28;20036;-71
2023/08/29 01:46:32;;;;;;;18.90;7.90;;;;;;;10.88;100.00;101109.28;5074461;28;20112;-71
2023/08/29 01:49:00;;;;;;;19.10;7.90;;;;;;;10.75;100.00;101109.22;5074233;28;20090;-70
2023/08/29 01:51:25;;;;;;;18.70;7.93;;;;;;;10.70;100.00;101105.63;5074154;28;20058;-70
2023/08/29 01:53:52;;;;;;;19.30;8.10;;;;;;;10.70;100.00;101103.00;5074359;28;20028;-70
2023/08/29 01:56:20;;;;;;;19.48;7.90;;;;;;;10.63;100.00;101114.41;5074137;28;20032;-70
2023/08/29 01:58:47;;;;;;;19.77;8.27;;;;;;;10.64;100.00;101117.06;5070316;28;20029;-69
2023/08/29 02:01:14;;;;;;;19.55;7.72;;;;;;;10.63;100.00;101125.00;5074127;28;20062;-70
2023/08/29 02:03:39;;;;;;;19.52;8.35;;;;;;;10.63;100.00;101117.94;5074101;28;20040;-71
2023/08/29 02:06:04;;;;;;;19.02;7.70;;;;;;;10.60;100.00;101112.63;5073819;28;20021;-69
2023/08/29 02:08:30;;;;;;;19.63;8.30;;;;;;;10.62;100.00;101117.94;5074058;28;20058;-69
2023/08/29 02:10:55;;;;;;;20.23;7.50;;;;;;;10.64;100.00;101121.47;5073797;28;20120;-70
2023/08/29 02:13:20;;;;;;;22.70;8.05;;;;;;;10.70;100.00;101123.28;5073096;28;20048;-69
2023/08/29 02:15:46;;;;;;;20.13;7.63;;;;;;;10.60;100.00;101119.66;5073727;28;20043;-66
2023/08/29 02:18:11;;;;;;;19.73;7.43;;;;;;;10.62;100.00;101117.94;5073588;28;20033;-69
2023/08/29 02:20:37;;;;;;;18.33;7.30;;;;;;;10.59;100.00;101121.41;5074105;28;20062;-69
2023/08/29 02:23:02;;;;;;;19.95;7.20;;;;;;;10.59;100.00;101124.06;5073479;28;20040;-70
2023/08/29 02:25:28;;;;;;;20.58;7.55;;;;;;;10.63;100.00;101132.94;5073518;28;20063;-67
2023/08/29 02:27:54;;;;;;;18.38;7.22;;;;;;;10.55;100.00;101132.84;5073724;28;20191;-68
2023/08/29 02:30:19;;;;;;;18.20;7.18;;;;;;;10.53;100.00;101138.97;5073708;28;20119;-70
2023/08/29 02:32:45;;;;;;;18.83;6.90;;;;;;;10.50;100.00;101138.94;5073283;28;20032;-70
2023/08/29 02:35:11;;;;;;;19.27;7.60;;;;;;;10.51;100.00;101140.72;5073518;28;20721;-70
2023/08/29 02:37:36;;;;;;;19.25;6.82;;;;;;;10.48;100.00;101144.22;5073270;28;20107;-70
2023/08/29 02:40:07;;;;;;;18.80;7.28;;;;;;;10.55;100.00;101147.81;5073240;28;20066;-70
2023/08/29 02:42:32;;;;;;;20.33;7.15;;;;;;;10.54;100.00;101146.94;5073311;28;20482;-69
2023/08/29 02:44:58;;;;;;;20.73;7.30;;;;;;;10.47;100.00;101155.69;5073364;28;20029;-69
2023/08/29 02:47:23;;;;;;;17.20;6.50;;;;;;;10.48;100.00;101161.84;5073366;28;20063;-60
2023/08/29 02:49:48;;;;;;;16.95;5.93;;;;;;;10.45;100.00;101160.94;5073506;28;20373;-61
2023/08/29 02:52:14;;;;;;;18.45;7.13;;;;;;;10.48;100.00;101162.72;5073030;28;20067;-62
2023/08/29 02:54:39;;;;;;;17.55;6.13;;;;;;;10.43;100.00;101154.75;5072989;28;20070;-61
2023/08/29 02:57:04;;;;;;;17.98;6.85;;;;;;;10.46;100.00;101159.19;5073147;28;20065;-65
2023/08/29 02:59:30;;;;;;;15.73;6.10;;;;;;;10.42;100.00;101152.97;5072945;28;20094;-62
2023/08/29 03:01:55;;;;;;;16.65;6.13;;;;;;;10.39;100.00;101150.31;5072720;28;20024;-64
2023/08/29 03:04:20;;;;;;;17.80;6.38;;;;;;;10.36;100.00;101158.19;5073022;28;20044;-68
2023/08/29 03:06:46;;;;;;;18.42;7.80;;;;;;;10.35;100.00;101156.41;5072847;28;20028;-60
2023/08/29 03:09:12;;;;;;;18.50;7.50;;;;;;;10.39;100.00;101162.63;5072682;28;20035;-64
2023/08/29 03:11:37;;;;;;;21.42;8.18;;;;;;;10.39;100.00;101162.63;5073209;28;20025;-63
2023/08/29 03:14:03;;;;;;;20.80;9.63;;;;;;;10.34;100.00;101165.25;5072937;28;20028;-61
2023/08/29 03:16:29;;;;;;;20.70;9.35;;;;;;;10.32;100.00;101159.00;5072669;28;20029;-66
2023/08/29 03:18:55;;;;;;;21.08;9.90;;;;;;;10.37;100.00;101160.00;5072892;28;20028;-63
2023/08/29 03:21:21;;;;;;;19.80;8.45;;;;;;;10.26;100.00;101157.19;5072664;28;20028;-61
2023/08/29 03:23:46;;;;;;;21.70;9.90;;;;;;;10.32;100.00;101160.78;5068600;28;20052;-64
2023/08/29 03:26:11;;;;;;;19.33;8.80;;;;;;;10.29;100.00;101156.34;5072601;28;20024;-60
2023/08/29 03:28:37;;;;;;;20.75;9.32;;;;;;;10.29;100.00;101158.97;5072520;28;20036;-68
2023/08/29 03:31:16;;;;;;;21.90;9.60;;;;;;;10.26;100.00;101157.19;5072792;28;20485;-60
2023/08/29 03:33:43;;;;;;;19.27;8.73;;;;;;;10.20;100.00;101149.19;5072680;28;20042;-61
2023/08/29 03:36:09;;;;;;;19.50;9.00;;;;;;;10.21;100.00;101144.81;5072569;28;20479;-60
2023/08/29 03:38:39;;;;;;;19.20;8.35;;;;;;;10.16;100.00;101151.78;5071188;28;20451;-61
2023/08/29 03:41:05;;;;;;;21.48;8.88;;;;;;;10.11;100.00;101142.06;5072656;28;20375;-62
2023/08/29 03:43:32;;;;;;;20.88;9.48;;;;;;;10.20;100.00;101141.28;5072391;28;20430;-61
2023/08/29 03:45:58;;;;;;;19.58;8.80;;;;;;;10.09;100.00;101132.34;5072334;28;20063;-64
2023/08/29 03:48:24;;;;;;;20.70;9.20;;;;;;;10.04;100.00;101134.06;5072581;28;20067;-63
2023/08/29 03:50:49;;;;;;;19.45;9.02;;;;;;;9.93;100.00;101123.34;5071260;28;20025;-61
2023/08/29 03:53:15;;;;;;;20.30;9.27;;;;;;;9.99;100.00;101120.81;5071020;28;20361;-62
2023/08/29 03:55:40;;;;;;;20.20;8.88;;;;;;;9.94;100.00;101115.44;5072575;28;20029;-60
2023/08/29 03:58:06;;;;;;;20.10;8.25;;;;;;;9.90;100.00;101115.41;5072218;28;20531;-64
2023/08/29 04:00:32;;;;;;;19.73;8.38;;;;;;;9.92;100.00;101118.97;5072279;28;20036;-67
2023/08/29 04:02:59;;;;;;;19.90;8.27;;;;;;;9.90;100.00;101110.13;5072398;28;20107;-65
2023/08/29 04:05:25;;;;;;;19.65;8.00;;;;;;;9.85;100.00;101112.72;5072171;28;20493;-61
2023/08/29 04:07:51;;;;;;;20.05;8.60;;;;;;;9.88;100.00;101109.22;5072354;28;20025;-61
2023/08/29 04:10:16;;;;;;;20.33;8.77;;;;;;;9.91;100.00;101115.41;5072491;28;20021;-64
2023/08/29 04:12:41;;;;;;;19.83;8.38;;;;;;;9.87;100.00;101112.72;5072197;28;20041;-62
2023/08/29 04:15:07;;;;;;;20.15;8.55;;;;;;;9.89;100.00;101108.38;5072204;28;20035;-64
2023/08/29 04:17:32;;;;;;;21.23;9.27;;;;;;;9.92;100.00;101097.84;5072102;28;20082;-62
2023/08/29 04:19:58;;;;;;;20.73;8.70;;;;;;;9.83;100.00;101095.97;5072069;28;20044;-65
2023/08/29 04:22:23;;;;;;;20.00;8.70;;;;;;;9.77;100.00;101102.06;5072130;28;20127;-66
2023/08/29 04:24:49;;;;;;;19.98;8.60;;;;;;;9.77;100.00;101106.44;5072149;28;20043;-60
2023/08/29 04:27:15;;;;;;;20.70;8.38;;;;;;;9.69;100.00;101106.38;5071997;28;20573;-63
2023/08/29 04:29:42;;;;;;;20.38;8.52;;;;;;;9.66;100.00;101106.31;5070849;28;20495;-65
2023/08/29 04:32:08;;;;;;;20.27;9.10;;;;;;;9.74;100.00;101099.41;5071998;28;20063;-63
2023/08/29 04:34:33;;;;;;;22.38;10.07;;;;;;;9.85;100.00;101096.00;5070634;28;20060;-67
2023/08/29 04:36:58;;;;;;;22.35;10.60;;;;;;;9.85;100.00;101091.59;5073399;28;20029;-61
2023/08/29 04:39:24;;;;;;;21.65;10.30;;;;;;;9.90;100.00;101105.75;5075783;28;20066;-62
2023/08/29 04:41:50;;;;;;;24.02;11.40;;;;;;;9.95;100.00;101103.16;5075525;28;20452;-64
2023/08/29 04:44:15;;;;;;;22.85;10.77;;;;;;;9.95;100.00;101101.38;5075844;28;20107;-68
2023/08/29 04:46:41;;;;;;;22.50;10.55;;;;;;;9.96;100.00;101089.09;5075644;28;20025;-66
2023/08/29 04:49:06;;;;;;;23.00;10.63;;;;;;;9.95;100.00;101095.22;5075403;28;20471;-60
2023/08/29 04:51:34;;;;;;;22.70;10.77;;;;;;;9.90;100.00;101089.00;5075557;28;20033;-64
2023/08/29 04:54:00;;;;;;;23.02;10.93;;;;;;;9.90;100.00;101099.56;5074870;28;20031;-60
2023/08/29 04:56:25;;;;;;;22.33;10.38;;;;;;;9.91;100.00;101098.69;5077210;28;20024;-66
2023/08/29 04:58:50;;;;;;;23.05;11.02;;;;;;;9.91;100.00;101096.06;5075197;28;20070;-67
2023/08/29 05:01:16;;;;;;;22.70;10.50;;;;;;;9.93;100.00;101094.31;5074905;28;20024;-66
2023/08/29 05:03:42;;;;;;;23.10;10.32;;;;;;;9.99;100.00;101099.69;5075225;28;20082;-60
2023/08/29 05:06:07;;;;;;;21.23;10.23;;;;;;;10.07;100.00;101102.38;5075031;28;20465;-66
2023/08/29 05:08:34;;;;;;;22.70;10.27;;;;;;;10.10;100.00;101100.66;5074768;28;20535;-62
2023/08/29 05:11:01;;;;;;;21.63;10.00;;;;;;;10.19;100.00;101096.34;5074935;28;20093;-65
2023/08/29 05:13:27;;;;;;;20.60;9.90;;;;;;;10.22;100.00;101097.28;5074994;28;20102;-65
2023/08/29 05:15:52;;;;;;;22.35;10.40;;;;;;;10.28;100.00;101101.72;5075002;28;20052;-61
2023/08/29 05:18:18;;;;;;;20.98;10.10;;;;;;;10.26;100.00;101098.19;5074961;28;20028;-64
2023/08/29 05:20:43;;;;;;;21.38;9.75;;;;;;;10.32;100.00;101105.28;5074579;28;20036;-67
2023/08/29 05:23:09;;;;;;;21.25;9.65;;;;;;;10.36;100.00;101099.19;5073189;28;20052;-64
2023/08/29 05:25:34;;;;;;;22.92;10.45;;;;;;;10.41;100.00;101093.09;5074283;28;20064;-65
2023/08/29 05:27:59;;;;;;;21.60;10.40;;;;;;;10.53;100.00;101087.00;5074614;28;20391;-63
2023/08/29 05:30:25;;;;;;;23.73;10.30;;;;;;;10.62;100.00;101087.06;5074480;28;20491;-63
2023/08/29 05:32:50;;;;;;;21.02;10.68;;;;;;;10.70;100.00;101087.13;5074682;28;20407;-65
2023/08/29 05:35:15;;;;;;;22.50;10.75;;;;;;;10.76;100.00;101097.78;5074383;28;20033;-60
2023/08/29 05:37:41;;;;;;;22.40;10.98;;;;;;;10.86;100.00;101087.25;5090094;28;20364;-65
2023/08/29 05:40:08;;;;;;;22.05;10.95;;;;;;;10.89;100.00;101100.50;5074646;28;20029;-63
2023/08/29 05:42:34;;;;;;;21.60;11.25;;;;;;;10.90;100.00;101094.34;5070140;28;20420;-62
2023/08/29 05:44:59;;;;;;;22.88;10.68;;;;;;;10.96;100.00;101094.38;5074123;28;20082;-65
2023/08/29 05:47:24;;;;;;;21.10;10.05;;;;;;;11.06;100.00;101093.56;5074595;28;20055;-62
2023/08/29 05:49:50;;;;;;;21.77;10.55;;;;;;;11.13;100.00;101089.19;5088867;28;20040;-62
2023/08/29 05:52:15;;;;;;;21.60;10.15;;;;;;;11.15;100.00;101098.91;5074151;28;20033;-63
2023/08/29 05:54:42;;;;;;;21.08;10.50;;;;;;;11.26;100.00;101098.09;5074226;28;20063;-65
2023/08/29 05:57:07;;;;;;;21.30;10.82;;;;;;;11.33;100.00;101097.25;5073334;28;20029;-63
2023/08/29 05:59:33;;;;;;;21.33;10.98;;;;;;;11.41;100.00;101105.22;5074420;28;20067;-67
2023/08/29 06:01:58;;;;;;;22.10;12.10;;;;;;;11.44;100.00;101105.25;5073889;28;20035;-65
2023/08/29 06:04:24;;;;;;;22.65;11.90;;;;;;;11.50;100.00;101110.56;5073855;28;20086;-65
2023/08/29 06:06:50;;;;;;;23.40;13.25;;;;;;;11.56;100.00;101109.69;5073993;28;20074;-63
2023/08/29 06:09:15;;;;;;;24.50;14.40;;;;;;;11.63;100.00;101106.19;5073651;28;20063;-60
2023/08/29 06:11:41;;;;;;;26.88;13.90;;;;;;;11.67;100.00;101108.00;5073917;28;20032;-63
2023/08/29 06:14:06;;;;;;;29.80;14.88;;;;;;;11.73;100.00;101100.06;5073820;28;20422;-68
2023/08/29 06:16:32;;;;;;;27.95;13.93;;;;;;;11.77;100.00;101101.84;5073547;28;20025;-65
2023/08/29 06:18:57;;;;;;;29.08;13.38;;;;;;;11.85;100.00;101110.72;5073426;28;20479;-67
2023/08/29 06:21:22;;;;;;;30.02;13.60;;;;;;;11.94;100.00;101099.28;5073980;28;20028;-66
2023/08/29 06:23:48;;;;;;;25.25;14.15;;;;;;;12.02;100.00;101105.47;5073270;28;20088;-64
2023/08/29 06:26:13;;;;;;;24.02;13.68;;;;;;;12.13;100.00;101104.63;5073388;28;20028;-61
2023/08/29 06:28:39;;;;;;;23.85;14.00;;;;;;;12.23;100.00;101095.81;5070839;28;20107;-63
2023/08/29 06:31:05;;;;;;;39.35;21.33;;;;;;;12.32;100.00;101100.22;5071489;28;20176;-64
2023/08/29 06:33:31;;;;;;;23.25;13.52;;;;;;;12.44;100.00;101105.56;5073376;28;20568;-62
2023/08/29 06:35:57;;;;;;;23.00;12.82;;;;;;;12.54;100.00;101099.38;5073097;28;20044;-61
2023/08/29 06:38:22;;;;;;;22.55;12.48;;;;;;;12.64;100.00;101094.06;5073086;28;20028;-68
2023/08/29 06:40:58;;;;;;;23.30;13.27;;;;;;;12.75;100.00;101099.38;5073429;28;20032;-62
2023/08/29 06:43:24;;;;;;;23.73;14.52;;;;;;;12.86;100.00;101093.19;5073201;28;20424;-63
2023/08/29 06:45:50;;;;;;;24.05;14.25;;;;;;;12.92;100.00;101084.31;5073232;28;20021;-65
2023/08/29 06:48:15;;;;;;;24.00;14.32;;;;;;;13.05;100.00;101087.84;5072949;28;20074;-61
2023/08/29 06:50:41;;;;;;;23.20;13.02;;;;;;;13.18;100.00;101092.25;5066622;28;20446;-62
2023/08/29 06:53:06;;;;;;;23.30;13.40;;;;;;;13.29;100.00;101088.66;5069633;28;20479;-62
2023/08/29 06:55:34;;;;;;;23.08;12.55;;;;;;;13.42;100.00;101096.59;5072991;28;20043;-61
2023/08/29 06:57:59;;;;;;;23.95;13.77;;;;;;;13.53;100.00;101093.94;5072873;28;20028;-63
2023/08/29 07:00:25;;;;;;;23.25;15.02;;;;;;;13.59;100.00;101099.22;5072535;28;20039;-63
2023/08/29 07:02:50;;;;;;;23.73;14.25;;;;;;;13.63;100.00;101100.09;5072352;28;20035;-64
2023/08/29 07:05:16;;;;;;;22.90;13.55;;;;;;;13.67;100.00;101099.16;5072592;28;20024;-65
2023/08/29 07:07:42;;;;;;;23.73;13.75;;;;;;;13.83;100.00;101107.06;5072747;28;20414;-63
2023/08/29 07:10:07;;;;;;;22.50;12.93;;;;;;;13.87;100.00;101109.72;5072941;28;20468;-65
2023/08/29 07:12:33;;;;;;;23.38;12.23;;;;;;;13.93;100.00;101098.16;5072690;28;20040;-64
2023/08/29 07:15:00;;;;;;;22.75;11.90;;;;;;;14.10;100.00;101106.94;5068293;28;20067;-70
2023/08/29 07:17:26;;;;;;;21.58;11.50;;;;;;;14.25;100.00;101105.94;5071004;28;20033;-65
2023/08/29 07:19:51;;;;;;;21.90;11.73;;;;;;;14.43;100.00;101104.94;5066710;28;20029;-63
2023/08/29 07:22:16;;;;;;;21.67;11.02;;;;;;;14.53;100.00;101100.41;5072428;28;20396;-70
2023/08/29 07:24:42;;;;;;;20.80;11.30;;;;;;;14.58;100.00;101105.72;5072803;28;20111;-63
2023/08/29 07:27:07;;;;;;;21.45;11.48;;;;;;;14.70;100.00;101102.97;5072701;28;20024;-67
2023/08/29 07:29:32;;;;;;;22.00;11.48;;;;;;;14.76;100.00;101110.03;5072504;28;20170;-68
2023/08/29 07:31:58;;;;;;;21.90;11.15;;;;;;;14.73;100.00;101110.06;5072757;28;20036;-61
2023/08/29 07:34:24;;;;;;;21.80;11.30;;;;;;;14.70;100.00;101092.34;5068243;28;20435;-72
2023/08/29 07:36:49;;;;;;;23.27;11.50;;;;;;;14.74;100.00;101101.19;5069359;28;20086;-62
2023/08/29 07:39:18;;;;;;;21.92;11.38;;;;;;;14.86;100.00;101097.53;5072390;28;20029;-63
2023/08/29 07:41:44;;;;;;;21.17;10.80;;;;;;;15.05;100.00;101107.09;5072159;28;20021;-66
2023/08/29 07:44:10;;;;;;;21.77;10.60;;;;;;;15.13;100.00;101107.00;5072662;28;20036;-66
2023/08/29 07:46:35;;;;;;;20.80;10.90;;;;;;;15.18;100.00;101110.50;5072571;28;20487;-67
2023/08/29 07:49:00;;;;;;;20.90;10.75;;;;;;;15.32;100.00;101105.91;5072442;28;20040;-61
2023/08/29 07:51:26;;;;;;;21.95;10.38;;;;;;;15.49;100.00;101099.50;5072712;28;20119;-66
2023/08/29 07:53:51;;;;;;;21.23;10.50;;;;;;;15.58;100.00;101110.06;5072386;28;20036;-71
2023/08/29 07:56:17;;;;;;;20.83;10.07;;;;;;;15.73;100.00;101100.09;5072287;28;20025;-69
2023/08/29 07:58:42;;;;;;;21.05;10.27;;;;;;;15.91;100.00;101102.56;5072820;28;20028;-66
2023/08/29 08:01:07;;;;;;;21.92;10.40;;;;;;;15.97;100.00;101099.78;5072352;28;20472;-63
2023/08/29 08:03:33;;;;;;;20.13;9.95;;;;;;;16.17;100.00;101093.31;5072384;28;20135;-61
2023/08/29 08:05:58;;;;;;;20.20;9.20;;;;;;;16.17;100.00;101090.66;5072480;28;20052;-63
2023/08/29 08:08:24;;;;;;;19.77;9.27;;;;;;;16.29;100.00;101095.78;5072146;28;20370;-62
2023/08/29 08:10:49;;;;;;;20.30;8.90;;;;;;;16.43;100.00;101100.03;5067788;28;20033;-72
2023/08/29 08:13:14;;;;;;;20.23;8.98;;;;;;;16.53;100.00;101101.66;5075493;28;20486;-65
2023/08/29 08:15:40;;;;;;;20.20;8.85;;;;;;;16.54;100.00;101098.06;5074524;28;20033;-70
2023/08/29 08:18:06;;;;;;;19.77;8.68;;;;;;;16.66;100.00;101099.63;5072278;28;20017;-63
2023/08/29 08:20:31;;;;;;;19.98;8.38;;;;;;;16.78;100.00;101103.91;5069805;28;20098;-68
2023/08/29 08:22:57;;;;;;;19.45;8.20;;;;;;;16.74;100.00;101093.25;5075621;28;20048;-63
2023/08/29 08:25:22;;;;;;;19.17;7.68;;;;;;;16.91;100.00;101097.47;5075103;28;20470;-62
2023/08/29 08:27:47;;;;;;;18.05;6.90;;;;;;;16.97;100.00;101097.38;5071754;28;20491;-61
2023/08/29 08:30:13;;;;;;;17.10;6.45;;;;;;;17.03;100.00;101093.69;5071708;28;20059;-61
2023/08/29 08:32:39;;;;;;;17.83;6.80;;;;;;;17.25;100.00;101089.69;5075583;28;20033;-61
2023/08/29 08:35:05;;;;;;;14.77;5.35;;;;;;;17.33;100.00;101089.56;5074226;28;20021;-60
2023/08/29 08:37:33;;;;;;;17.63;6.53;;;;;;;17.53;100.00;101093.63;5070933;28;20353;-61
2023/08/29 08:39:58;;;;;;;17.85;6.15;;;;;;;17.88;100.00;101091.97;5075519;28;20048;-63
2023/08/29 08:42:24;;;;;;;17.42;6.60;;;;;;;18.43;100.00;101090.72;5075358;28;20059;-63
2023/08/29 08:44:49;;;;;;;16.75;6.25;;;;;;;18.93;100.00;101090.41;5075305;28;20483;-61
2023/08/29 08:47:15;;;;;;;18.08;6.82;;;;;;;19.28;100.00;101095.72;5075719;28;20050;-63
2023/08/29 08:49:40;;;;;;;17.92;6.53;;;;;;;19.69;100.00;101091.84;5075295;28;20028;-67
2023/08/29 08:52:07;;;;;;;16.85;6.13;;;;;;;19.88;100.00;101085.06;5075030;28;20029;-61
2023/08/29 08:54:33;;;;;;;15.20;5.70;;;;;;;20.14;100.00;101084.25;5075130;28;20056;-61
2023/08/29 08:56:58;;;;;;;17.02;6.30;;;;;;;20.30;100.00;101081.94;5074921;28;20059;-64
2023/08/29 08:59:27;;;;;;;17.30;5.80;;;;;;;20.62;100.00;101088.06;5089983;28;20540;-67
2023/08/29 09:01:56;;;;;;;15.70;5.57;;;;;;;20.80;100.00;101087.47;5072475;28;20027;-67
2023/08/29 09:04:22;;;;;;;16.05;5.68;;;;;;;20.86;100.00;101081.88;5074842;28;20028;-68
2023/08/29 09:06:48;;;;;;;15.23;5.45;;;;;;;20.58;100.00;101079.25;5075136;28;20028;-69
2023/08/29 09:09:16;;;;;;;13.27;4.60;;;;;;;20.02;100.00;101082.84;5068382;28;20025;-66
2023/08/29 09:11:42;;;;;;;17.00;4.90;;;;;;;19.72;100.00;101081.94;5071275;28;20189;-64
2023/08/29 09:14:07;;;;;;;17.25;5.50;;;;;;;20.20;100.00;101076.03;5070363;28;20515;-61
2023/08/29 09:16:35;;;;;;;16.15;4.93;;;;;;;20.63;100.00;101087.16;5062930;28;20044;-63
2023/08/29 09:19:01;;;;;;;15.48;5.15;;;;;;;21.11;100.00;101089.09;5062587;28;20482;-67
2023/08/29 09:21:26;;;;;;;15.43;4.95;;;;;;;21.54;100.00;101084.88;5065992;28;20063;-67
2023/08/29 09:23:52;;;;;;;11.80;4.28;;;;;;;21.91;100.00;101088.81;5070165;28;20525;-63
2023/08/29 09:26:19;;;;;;;10.70;4.18;;;;;;;21.86;100.00;101096.22;5070837;28;20376;-61
2023/08/29 09:28:46;;;;;;;11.52;3.90;;;;;;;21.82;100.00;101096.38;5070251;28;20471;-61
2023/08/29 09:31:12;;;;;;;11.15;3.20;;;;;;;21.48;100.00;101094.94;5074663;28;20036;-61
2023/08/29 09:33:39;;;;;;;8.43;2.75;;;;;;;21.59;100.00;101096.31;5074188;28;20078;-61
2023/08/29 09:36:05;;;;;;;10.35;3.80;;;;;;;21.43;100.00;101097.78;5073429;28;20482;-61
2023/08/29 09:38:34;;;;;;;14.23;4.10;;;;;;;21.10;100.00;101097.22;5074478;28;20032;-61
2023/08/29 09:41:00;;;;;;;12.25;3.88;;;;;;;20.54;100.00;101094.56;5074268;28;20033;-67
2023/08/29 09:43:29;;;;;;;12.55;4.20;;;;;;;20.55;100.00;101092.78;5074242;28;20109;-70
2023/08/29 09:45:56;;;;;;;12.25;4.10;;;;;;;20.47;100.00;101093.03;5074396;28;20020;-70
2023/08/29 09:48:22;;;;;;;11.65;3.90;;;;;;;20.19;100.00;101085.88;5074141;28;20036;-67
2023/08/29 09:50:49;;;;;;;13.50;3.80;;;;;;;20.25;100.00;101079.44;5074474;28;20031;-67
2023/08/29 09:53:19;;;;;;;13.95;4.20;;;;;;;20.39;100.00;101079.00;5073878;28;20032;-70
2023/08/29 09:55:48;;;;;;;10.40;3.80;;;;;;;20.66;100.00;101068.25;5074061;28;20021;-68
2023/08/29 09:58:16;;;;;;;11.10;3.90;;;;;;;20.77;100.00;101066.09;5074029;28;20017;-69
2023/08/29 10:00:43;;;;;;;10.82;3.60;;;;;;;20.77;100.00;101071.47;5074345;28;20032;-68
2023/08/29 10:03:09;;;;;;;12.32;3.40;;;;;;;20.57;100.00;101073.94;5069455;28;20056;-71
2023/08/29 10:05:40;;;;;;;11.68;3.90;;;;;;;20.51;100.00;101073.19;5070058;28;20217;-70
2023/08/29 10:08:18;;;;;;;13.57;4.25;;;;;;;20.66;100.00;101073.63;5070423;28;20134;-67
2023/08/29 10:10:43;;;;;;;14.60;4.20;;;;;;;20.74;100.00;101068.91;5071111;28;20105;-69
2023/08/29 10:13:10;;;;;;;12.18;4.03;;;;;;;20.55;100.00;101069.50;5073913;28;20032;-68
2023/08/29 10:15:37;;;;;;;9.45;3.22;;;;;;;20.42;100.00;101075.34;5070313;28;20021;-70
2023/08/29 10:18:02;;;;;;;9.07;3.20;;;;;;;20.59;100.00;101072.06;5069194;28;20042;-69
2023/08/29 10:20:30;;;;;;;10.15;3.10;;;;;;;20.74;100.00;101066.22;5070530;28;20447;-71
2023/08/29 10:22:56;;;;;;;10.77;3.40;;;;;;;20.61;100.00;101059.47;5064666;28;20549;-72
2023/08/29 10:25:21;;;;;;;13.05;3.60;;;;;;;20.90;100.00;101067.44;5073964;28;20036;-72
2023/08/29 10:27:49;;;;;;;13.57;4.18;;;;;;;20.78;100.00;101066.97;5073468;28;20021;-72
2023/08/29 10:30:14;;;;;;;10.85;3.58;;;;;;;20.67;100.00;101060.16;5073455;28;20049;-72
2023/08/29 10:32:41;;;;;;;9.82;3.35;;;;;;;20.62;100.00;101059.44;5073626;28;20024;-72
2023/08/29 10:35:17;;;;;;;14.18;4.20;;;;;;;20.79;100.00;101061.53;5072894;28;20077;-72
2023/08/29 10:37:42;;;;;;;10.93;3.90;;;;;;;21.04;100.00;101053.50;5073307;28;20028;-72
2023/08/29 10:40:11;;;;;;;10.82;3.90;;;;;;;21.39;100.00;101056.72;5073783;28;20040;-72
2023/08/29 10:43:00;;;;;;;11.80;4.00;;;;;;;21.42;100.00;101063.75;5073723;28;20020;-72
2023/08/29 10:45:45;;;;;;;13.60;4.40;;;;;;;21.02;100.00;101054.50;5070161;28;20055;-72
2023/08/29 10:48:16;;;;;;;13.35;4.43;;;;;;;20.62;100.00;101051.38;5072139;28;20378;-71
2023/08/29 10:50:48;;;;;;;12.68;4.20;;;;;;;21.09;100.00;101056.03;5073456;28;20025;-72
2023/08/29 10:53:19;;;;;;;13.18;4.72;;;;;;;21.24;100.00;101044.69;5073170;28;20020;-72
2023/08/29 10:56:00;;;;;;;12.95;4.53;;;;;;;21.48;100.00;101044.72;5069154;28;20029;-71
2023/08/29 10:58:38;;;;;;;14.30;4.70;;;;;;;21.82;100.00;101046.13;5073057;28;20039;-72
2023/08/29 11:01:05;;;;;;;9.60;3.42;;;;;;;21.86;100.00;101042.41;5069859;28;20024;-71
2023/08/29 11:03:37;;;;;;;8.80;3.20;;;;;;;22.47;100.00;101038.16;5072892;28;20036;-69